EFSI/SJY METAR and TAF weather

Enter ICAO airport designator
Station Type Date Time Source
EFSI METAR 2019/06/20 07:50 UTC NOAA

EFSI 200750Z AUTO 12007KT 080V150 CAVOK 18/10 Q1011


Station Type Date Time Source
EFSI Decoded METAR 2019/06/20 07:50 UTC NOAA

Seinajoki-Ilmajok, Finland (EFSI) 62-41-37N 022-49-55E
Jun 20, 2019 - 03:50 AM EDT / 2019.06.20 0750 UTC
Wind: from the ESE (120 degrees) at 8 MPH (7 KT) (direction variable):0
Visibility: greater than 7 mile(s):0
Temperature: 64 F (18 C)
Dew Point: 50 F (10 C)
Relative Humidity: 59%
Pressure (altimeter): 29.85 in. Hg (1011 hPa)
ob: EFSI 200750Z AUTO 12007KT 080V150 CAVOK 18/10 Q1011
cycle: 8

Station Type Date Time Source
EFSI TAF 2012/03/06 09:42 UTC NOAA

TAF EFSI 060830Z 0609/0621 12003KT CAVOK

Example: see airport list